YSNF

Norfolk Island Airport

Airport
ICAO code
YSNF
IATA Code
NLK
Summary
ICAO Region
APAC
ICAO Territory
Location

Norfolk Island, External territory of Australia

Serving
Norfolk Island
Elevation
371 ft
Coordinates
29° 2' 33" S , 167° 56' 17" E
KCC
Cfb
Airport WX
Tropical Revolving Storm
Metar
Observation
YSNF 171000Z AUTO 31001KT 3200 -RA SCT009 BKN014 OVC019 17/16 Q1010
Station
Norfolk Island Airport
Date/Time
2022-08-17 10:00:00
Wind direction
310°
Wind speed
01 kts
Lowest cloud amount
scattered clouds
Temperature
17°C
Dew point
16°C
Humidity
93%
QNH
1010 hPa
Weather condition
n/a

Norfolk Island Airport is the only airport on Norfolk Island, an external territory of Australia. The island is located in the Pacific Ocean between Australia, New Zealand, and New Caledonia.

Climatology

Temperate Marine climate/Oceanic climate (Köppen climate classification Cfb). Moderately cool summer and comparatively warm winter. The temperature almost never falls below 10 °C (50 °F) or rises above 26 °C (79 °F).

Airport map

Aerial View

SKYbrary Partners:

Safety knowledge contributed by: